sensor_id;sensor_type;location;lat;lon;timestamp;temperature;humidity
38090;DHT22;23904;52.322;10.232;2022-07-21T00:01:06;24.60;57.40
38090;DHT22;23904;52.322;10.232;2022-07-21T00:03:31;24.50;57.50
38090;DHT22;23904;52.322;10.232;2022-07-21T00:05:57;24.50;57.70
38090;DHT22;23904;52.322;10.232;2022-07-21T00:08:23;24.50;57.40
38090;DHT22;23904;52.322;10.232;2022-07-21T00:10:48;24.60;57.50
38090;DHT22;23904;52.322;10.232;2022-07-21T00:13:14;24.60;57.50
38090;DHT22;23904;52.322;10.232;2022-07-21T00:15:39;24.60;57.60
38090;DHT22;23904;52.322;10.232;2022-07-21T00:18:05;24.60;57.70
38090;DHT22;23904;52.322;10.232;2022-07-21T00:20:31;24.60;58.00
38090;DHT22;23904;52.322;10.232;2022-07-21T00:22:58;24.60;58.50
38090;DHT22;23904;52.322;10.232;2022-07-21T00:25:24;24.50;58.90
38090;DHT22;23904;52.322;10.232;2022-07-21T00:27:50;24.50;59.30
38090;DHT22;23904;52.322;10.232;2022-07-21T00:30:16;24.40;59.70
38090;DHT22;23904;52.322;10.232;2022-07-21T00:32:42;24.40;60.00
38090;DHT22;23904;52.322;10.232;2022-07-21T00:35:09;24.50;60.10
38090;DHT22;23904;52.322;10.232;2022-07-21T00:37:35;24.50;60.50
38090;DHT22;23904;52.322;10.232;2022-07-21T00:40:00;24.40;61.00
38090;DHT22;23904;52.322;10.232;2022-07-21T00:42:28;24.40;61.50
38090;DHT22;23904;52.322;10.232;2022-07-21T00:44:54;24.40;61.80
38090;DHT22;23904;52.322;10.232;2022-07-21T00:47:25;24.30;62.40
38090;DHT22;23904;52.322;10.232;2022-07-21T00:49:51;24.30;62.80
38090;DHT22;23904;52.322;10.232;2022-07-21T00:52:18;24.30;62.90
38090;DHT22;23904;52.322;10.232;2022-07-21T00:54:44;24.20;63.20
38090;DHT22;23904;52.322;10.232;2022-07-21T00:57:10;24.30;63.30
38090;DHT22;23904;52.322;10.232;2022-07-21T00:59:37;24.20;63.40
38090;DHT22;23904;52.322;10.232;2022-07-21T01:02:03;24.20;63.80
38090;DHT22;23904;52.322;10.232;2022-07-21T01:04:28;24.30;64.00
38090;DHT22;23904;52.322;10.232;2022-07-21T01:06:54;24.20;64.50
38090;DHT22;23904;52.322;10.232;2022-07-21T01:09:22;24.20;64.80
38090;DHT22;23904;52.322;10.232;2022-07-21T01:11:48;24.20;64.90
38090;DHT22;23904;52.322;10.232;2022-07-21T01:14:14;24.20;65.40
38090;DHT22;23904;52.322;10.232;2022-07-21T01:16:42;24.10;65.60
38090;DHT22;23904;52.322;10.232;2022-07-21T01:19:09;24.20;65.70
38090;DHT22;23904;52.322;10.232;2022-07-21T01:21:43;24.20;65.80
38090;DHT22;23904;52.322;10.232;2022-07-21T01:24:08;24.10;66.00
38090;DHT22;23904;52.322;10.232;2022-07-21T01:26:45;24.10;66.10
38090;DHT22;23904;52.322;10.232;2022-07-21T01:29:11;24.10;66.50
38090;DHT22;23904;52.322;10.232;2022-07-21T01:31:42;24.10;66.70
38090;DHT22;23904;52.322;10.232;2022-07-21T01:34:08;24.10;66.90
38090;DHT22;23904;52.322;10.232;2022-07-21T01:36:34;24.10;66.90
38090;DHT22;23904;52.322;10.232;2022-07-21T01:39:00;24.10;67.10
38090;DHT22;23904;52.322;10.232;2022-07-21T01:41:44;24.00;67.20
38090;DHT22;23904;52.322;10.232;2022-07-21T01:44:11;24.10;67.50
38090;DHT22;23904;52.322;10.232;2022-07-21T01:46:48;24.10;67.60
38090;DHT22;23904;52.322;10.232;2022-07-21T01:49:15;24.10;67.60
38090;DHT22;23904;52.322;10.232;2022-07-21T01:51:41;24.10;67.80
38090;DHT22;23904;52.322;10.232;2022-07-21T01:54:08;24.20;67.80
38090;DHT22;23904;52.322;10.232;2022-07-21T01:56:35;24.10;68.10
38090;DHT22;23904;52.322;10.232;2022-07-21T01:59:02;24.00;68.50
38090;DHT22;23904;52.322;10.232;2022-07-21T02:01:29;23.90;68.90
38090;DHT22;23904;52.322;10.232;2022-07-21T02:03:56;23.90;69.40
38090;DHT22;23904;52.322;10.232;2022-07-21T02:06:22;23.90;69.50
38090;DHT22;23904;52.322;10.232;2022-07-21T02:08:48;23.90;69.90
38090;DHT22;23904;52.322;10.232;2022-07-21T02:11:14;23.90;69.90
38090;DHT22;23904;52.322;10.232;2022-07-21T02:13:39;24.00;70.10
38090;DHT22;23904;52.322;10.232;2022-07-21T02:16:05;24.00;70.30
38090;DHT22;23904;52.322;10.232;2022-07-21T02:18:31;23.90;70.50
38090;DHT22;23904;52.322;10.232;2022-07-21T02:20:57;24.00;70.70
38090;DHT22;23904;52.322;10.232;2022-07-21T02:23:24;24.00;70.70
38090;DHT22;23904;52.322;10.232;2022-07-21T02:25:50;24.10;70.80
38090;DHT22;23904;52.322;10.232;2022-07-21T02:28:18;24.20;70.60
38090;DHT22;23904;52.322;10.232;2022-07-21T02:30:44;24.10;70.70
38090;DHT22;23904;52.322;10.232;2022-07-21T02:33:09;24.10;70.60
38090;DHT22;23904;52.322;10.232;2022-07-21T02:35:35;24.10;70.90
38090;DHT22;23904;52.322;10.232;2022-07-21T02:38:00;24.00;71.10
38090;DHT22;23904;52.322;10.232;2022-07-21T02:40:26;24.10;71.00
38090;DHT22;23904;52.322;10.232;2022-07-21T02:42:52;24.10;70.90
38090;DHT22;23904;52.322;10.232;2022-07-21T02:45:17;24.20;70.90
38090;DHT22;23904;52.322;10.232;2022-07-21T02:47:58;24.10;72.60
38090;DHT22;23904;52.322;10.232;2022-07-21T02:50:25;24.00;75.80
38090;DHT22;23904;52.322;10.232;2022-07-21T02:52:58;23.90;76.50
38090;DHT22;23904;52.322;10.232;2022-07-21T02:55:25;23.80;78.60
38090;DHT22;23904;52.322;10.232;2022-07-21T02:58:06;23.80;80.00
38090;DHT22;23904;52.322;10.232;2022-07-21T03:00:35;23.80;80.80
38090;DHT22;23904;52.322;10.232;2022-07-21T03:03:02;23.70;82.80
38090;DHT22;23904;52.322;10.232;2022-07-21T03:05:29;23.70;84.40
38090;DHT22;23904;52.322;10.232;2022-07-21T03:07:55;23.40;84.50
38090;DHT22;23904;52.322;10.232;2022-07-21T03:10:20;23.20;84.90
38090;DHT22;23904;52.322;10.232;2022-07-21T03:12:46;23.30;84.80
38090;DHT22;23904;52.322;10.232;2022-07-21T03:15:11;23.20;86.30
38090;DHT22;23904;52.322;10.232;2022-07-21T03:17:37;22.90;90.20
38090;DHT22;23904;52.322;10.232;2022-07-21T03:20:03;22.70;91.00
38090;DHT22;23904;52.322;10.232;2022-07-21T03:22:29;22.70;91.20
38090;DHT22;23904;52.322;10.232;2022-07-21T03:24:54;22.60;93.20
38090;DHT22;23904;52.322;10.232;2022-07-21T03:27:19;22.40;94.90
38090;DHT22;23904;52.322;10.232;2022-07-21T03:29:45;22.40;95.40
38090;DHT22;23904;52.322;10.232;2022-07-21T03:32:10;22.30;96.30
38090;DHT22;23904;52.322;10.232;2022-07-21T03:34:36;22.30;97.20
38090;DHT22;23904;52.322;10.232;2022-07-21T03:37:01;22.30;98.30
38090;DHT22;23904;52.322;10.232;2022-07-21T03:39:27;22.20;98.70
38090;DHT22;23904;52.322;10.232;2022-07-21T03:41:52;22.20;99.40
38090;DHT22;23904;52.322;10.232;2022-07-21T03:44:18;22.20;99.90
38090;DHT22;23904;52.322;10.232;2022-07-21T03:46:43;22.20;99.90
38090;DHT22;23904;52.322;10.232;2022-07-21T03:49:09;22.20;99.90
38090;DHT22;23904;52.322;10.232;2022-07-21T03:51:35;22.30;99.90
38090;DHT22;23904;52.322;10.232;2022-07-21T03:54:00;22.50;99.90
38090;DHT22;23904;52.322;10.232;2022-07-21T03:56:27;22.50;99.90
38090;DHT22;23904;52.322;10.232;2022-07-21T03:58:53;22.50;99.90
38090;DHT22;23904;52.322;10.232;2022-07-21T04:01:18;22.50;99.90
38090;DHT22;23904;52.322;10.232;2022-07-21T04:03:44;22.50;99.90
38090;DHT22;23904;52.322;10.232;2022-07-21T04:06:09;22.50;99.90
38090;DHT22;23904;52.322;10.232;2022-07-21T04:08:37;22.50;99.90
38090;DHT22;23904;52.322;10.232;2022-07-21T04:11:03;22.30;99.90
38090;DHT22;23904;52.322;10.232;2022-07-21T04:13:29;22.30;99.90
38090;DHT22;23904;52.322;10.232;2022-07-21T04:15:54;22.40;99.90
38090;DHT22;23904;52.322;10.232;2022-07-21T04:18:20;22.40;99.90
38090;DHT22;23904;52.322;10.232;2022-07-21T04:20:45;22.50;99.90
38090;DHT22;23904;52.322;10.232;2022-07-21T04:23:11;22.60;99.90
38090;DHT22;23904;52.322;10.232;2022-07-21T04:25:36;22.60;99.90
38090;DHT22;23904;52.322;10.232;2022-07-21T04:28:03;22.60;99.90
38090;DHT22;23904;52.322;10.232;2022-07-21T04:30:29;22.60;99.90
38090;DHT22;23904;52.322;10.232;2022-07-21T04:32:55;22.60;99.90
38090;DHT22;23904;52.322;10.232;2022-07-21T04:35:21;22.60;99.90
38090;DHT22;23904;52.322;10.232;2022-07-21T04:37:46;22.60;99.90
38090;DHT22;23904;52.322;10.232;2022-07-21T04:40:13;22.50;99.90
38090;DHT22;23904;52.322;10.232;2022-07-21T04:42:39;22.40;99.90
38090;DHT22;23904;52.322;10.232;2022-07-21T04:45:06;22.20;99.90
38090;DHT22;23904;52.322;10.232;2022-07-21T04:47:33;22.10;99.90
38090;DHT22;23904;52.322;10.232;2022-07-21T04:50:08;22.10;99.90
38090;DHT22;23904;52.322;10.232;2022-07-21T04:52:34;21.90;99.90
38090;DHT22;23904;52.322;10.232;2022-07-21T04:54:59;21.60;99.90
38090;DHT22;23904;52.322;10.232;2022-07-21T04:57:25;21.60;99.90
38090;DHT22;23904;52.322;10.232;2022-07-21T04:59:50;21.60;99.90
38090;DHT22;23904;52.322;10.232;2022-07-21T05:02:16;21.50;99.90
38090;DHT22;23904;52.322;10.232;2022-07-21T05:04:41;21.60;99.90
38090;DHT22;23904;52.322;10.232;2022-07-21T05:07:07;21.70;99.90
38090;DHT22;23904;52.322;10.232;2022-07-21T05:09:33;21.60;99.90
38090;DHT22;23904;52.322;10.232;2022-07-21T05:11:58;21.70;99.90
38090;DHT22;23904;52.322;10.232;2022-07-21T05:14:24;21.70;99.90
38090;DHT22;23904;52.322;10.232;2022-07-21T05:16:49;21.60;99.90
38090;DHT22;23904;52.322;10.232;2022-07-21T05:19:15;21.50;99.90
38090;DHT22;23904;52.322;10.232;2022-07-21T05:21:40;21.50;99.90
38090;DHT22;23904;52.322;10.232;2022-07-21T05:24:06;21.40;99.90
38090;DHT22;23904;52.322;10.232;2022-07-21T05:26:31;21.50;99.90
38090;DHT22;23904;52.322;10.232;2022-07-21T05:28:57;21.40;99.90
38090;DHT22;23904;52.322;10.232;2022-07-21T05:31:22;21.50;99.90
38090;DHT22;23904;52.322;10.232;2022-07-21T05:33:48;21.70;99.90
38090;DHT22;23904;52.322;10.232;2022-07-21T05:36:13;21.80;99.90
38090;DHT22;23904;52.322;10.232;2022-07-21T05:38:39;21.90;99.90
38090;DHT22;23904;52.322;10.232;2022-07-21T05:41:05;21.70;99.90
38090;DHT22;23904;52.322;10.232;2022-07-21T05:43:30;21.80;99.90
38090;DHT22;23904;52.322;10.232;2022-07-21T05:45:56;21.90;99.90
38090;DHT22;23904;52.322;10.232;2022-07-21T05:48:22;22.00;99.90
38090;DHT22;23904;52.322;10.232;2022-07-21T05:50:48;22.00;99.90
38090;DHT22;23904;52.322;10.232;2022-07-21T05:53:13;22.10;99.90
38090;DHT22;23904;52.322;10.232;2022-07-21T05:55:39;22.10;99.90
38090;DHT22;23904;52.322;10.232;2022-07-21T05:58:04;22.10;99.90
38090;DHT22;23904;52.322;10.232;2022-07-21T06:00:30;22.20;99.90
38090;DHT22;23904;52.322;10.232;2022-07-21T06:02:55;22.20;99.90
38090;DHT22;23904;52.322;10.232;2022-07-21T06:05:21;22.10;99.90
38090;DHT22;23904;52.322;10.232;2022-07-21T06:07:46;22.20;99.90
38090;DHT22;23904;52.322;10.232;2022-07-21T06:10:13;22.20;99.90
38090;DHT22;23904;52.322;10.232;2022-07-21T06:12:39;22.10;99.90
38090;DHT22;23904;52.322;10.232;2022-07-21T06:15:05;22.10;99.90
38090;DHT22;23904;52.322;10.232;2022-07-21T06:17:37;22.20;99.90
38090;DHT22;23904;52.322;10.232;2022-07-21T06:20:05;22.20;99.90
38090;DHT22;23904;52.322;10.232;2022-07-21T06:22:31;22.30;99.90
38090;DHT22;23904;52.322;10.232;2022-07-21T06:24:56;22.40;99.90
38090;DHT22;23904;52.322;10.232;2022-07-21T06:27:22;22.40;99.90
38090;DHT22;23904;52.322;10.232;2022-07-21T06:29:47;22.30;99.90
38090;DHT22;23904;52.322;10.232;2022-07-21T06:32:13;22.30;99.90
38090;DHT22;23904;52.322;10.232;2022-07-21T06:34:38;22.30;99.90
38090;DHT22;23904;52.322;10.232;2022-07-21T06:37:04;22.30;99.90
38090;DHT22;23904;52.322;10.232;2022-07-21T06:39:29;22.20;99.90
38090;DHT22;23904;52.322;10.232;2022-07-21T06:41:54;22.20;99.90
38090;DHT22;23904;52.322;10.232;2022-07-21T06:44:20;22.20;99.90
38090;DHT22;23904;52.322;10.232;2022-07-21T06:46:46;22.30;99.90
38090;DHT22;23904;52.322;10.232;2022-07-21T06:49:11;22.40;99.90
38090;DHT22;23904;52.322;10.232;2022-07-21T06:51:37;22.50;99.90
38090;DHT22;23904;52.322;10.232;2022-07-21T06:54:02;22.60;99.90
38090;DHT22;23904;52.322;10.232;2022-07-21T06:56:28;22.50;99.90
38090;DHT22;23904;52.322;10.232;2022-07-21T06:58:53;22.60;99.90
38090;DHT22;23904;52.322;10.232;2022-07-21T07:01:19;22.50;99.90
38090;DHT22;23904;52.322;10.232;2022-07-21T07:03:45;22.60;99.90
38090;DHT22;23904;52.322;10.232;2022-07-21T07:06:11;22.60;99.90
38090;DHT22;23904;52.322;10.232;2022-07-21T07:08:37;22.70;99.90
38090;DHT22;23904;52.322;10.232;2022-07-21T07:11:04;22.70;99.90
38090;DHT22;23904;52.322;10.232;2022-07-21T07:13:29;22.80;99.90
38090;DHT22;23904;52.322;10.232;2022-07-21T07:15:55;22.80;99.90
38090;DHT22;23904;52.322;10.232;2022-07-21T07:18:20;23.00;99.90
38090;DHT22;23904;52.322;10.232;2022-07-21T07:20:49;23.20;99.90
38090;DHT22;23904;52.322;10.232;2022-07-21T07:23:15;23.50;99.90
38090;DHT22;23904;52.322;10.232;2022-07-21T07:25:41;23.60;99.90
38090;DHT22;23904;52.322;10.232;2022-07-21T07:28:06;24.10;99.90
38090;DHT22;23904;52.322;10.232;2022-07-21T07:30:34;24.20;99.90
38090;DHT22;23904;52.322;10.232;2022-07-21T07:33:00;24.30;99.90
38090;DHT22;23904;52.322;10.232;2022-07-21T07:35:25;24.40;99.90
38090;DHT22;23904;52.322;10.232;2022-07-21T07:37:51;24.30;99.90
38090;DHT22;23904;52.322;10.232;2022-07-21T07:40:19;24.20;99.90
38090;DHT22;23904;52.322;10.232;2022-07-21T07:42:46;24.00;99.90
38090;DHT22;23904;52.322;10.232;2022-07-21T07:45:12;23.80;99.90
38090;DHT22;23904;52.322;10.232;2022-07-21T07:47:38;23.80;99.90
38090;DHT22;23904;52.322;10.232;2022-07-21T07:50:05;23.70;99.90
38090;DHT22;23904;52.322;10.232;2022-07-21T07:52:31;23.80;99.90
38090;DHT22;23904;52.322;10.232;2022-07-21T07:54:57;24.00;99.90
38090;DHT22;23904;52.322;10.232;2022-07-21T07:57:23;24.10;99.90
38090;DHT22;23904;52.322;10.232;2022-07-21T07:59:48;24.20;99.90
38090;DHT22;23904;52.322;10.232;2022-07-21T08:02:13;24.30;99.90
38090;DHT22;23904;52.322;10.232;2022-07-21T08:04:39;24.40;99.90
38090;DHT22;23904;52.322;10.232;2022-07-21T08:07:06;24.50;99.90
38090;DHT22;23904;52.322;10.232;2022-07-21T08:09:32;24.50;99.90
38090;DHT22;23904;52.322;10.232;2022-07-21T08:11:57;24.80;99.90
38090;DHT22;23904;52.322;10.232;2022-07-21T08:14:23;24.60;99.90
38090;DHT22;23904;52.322;10.232;2022-07-21T08:16:50;24.60;99.90
38090;DHT22;23904;52.322;10.232;2022-07-21T08:19:15;24.40;99.90
38090;DHT22;23904;52.322;10.232;2022-07-21T08:21:41;24.10;99.90
38090;DHT22;23904;52.322;10.232;2022-07-21T08:24:06;23.90;99.90
38090;DHT22;23904;52.322;10.232;2022-07-21T08:26:33;23.80;99.90
38090;DHT22;23904;52.322;10.232;2022-07-21T08:28:59;23.70;99.90
38090;DHT22;23904;52.322;10.232;2022-07-21T08:31:25;23.60;99.90
38090;DHT22;23904;52.322;10.232;2022-07-21T08:33:51;23.60;99.90
38090;DHT22;23904;52.322;10.232;2022-07-21T08:36:17;23.70;99.90
38090;DHT22;23904;52.322;10.232;2022-07-21T08:38:43;23.80;99.90
38090;DHT22;23904;52.322;10.232;2022-07-21T08:41:09;23.80;99.90
38090;DHT22;23904;52.322;10.232;2022-07-21T08:43:35;23.90;99.90
38090;DHT22;23904;52.322;10.232;2022-07-21T08:46:02;24.10;99.90
38090;DHT22;23904;52.322;10.232;2022-07-21T08:48:28;24.20;99.90
38090;DHT22;23904;52.322;10.232;2022-07-21T08:50:55;24.10;99.90
38090;DHT22;23904;52.322;10.232;2022-07-21T08:53:21;23.80;99.90
38090;DHT22;23904;52.322;10.232;2022-07-21T08:55:47;23.60;99.90
38090;DHT22;23904;52.322;10.232;2022-07-21T08:58:13;23.50;99.90
38090;DHT22;23904;52.322;10.232;2022-07-21T09:00:44;23.30;99.90
38090;DHT22;23904;52.322;10.232;2022-07-21T09:03:12;23.20;99.90
38090;DHT22;23904;52.322;10.232;2022-07-21T09:05:38;23.30;99.90
38090;DHT22;23904;52.322;10.232;2022-07-21T09:08:04;23.30;99.90
38090;DHT22;23904;52.322;10.232;2022-07-21T09:10:31;23.70;99.90
38090;DHT22;23904;52.322;10.232;2022-07-21T09:12:59;23.90;99.90
38090;DHT22;23904;52.322;10.232;2022-07-21T09:15:26;24.10;99.90
38090;DHT22;23904;52.322;10.232;2022-07-21T09:20:30;23.90;99.90
38090;DHT22;23904;52.322;10.232;2022-07-21T09:23:12;23.80;99.90
38090;DHT22;23904;52.322;10.232;2022-07-21T09:25:42;23.50;99.90
38090;DHT22;23904;52.322;10.232;2022-07-21T09:28:28;23.40;99.90
38090;DHT22;23904;52.322;10.232;2022-07-21T09:31:05;23.30;99.90
38090;DHT22;23904;52.322;10.232;2022-07-21T09:38:33;23.00;99.90
38090;DHT22;23904;52.322;10.232;2022-07-21T09:41:08;22.90;99.90
38090;DHT22;23904;52.322;10.232;2022-07-21T09:43:43;22.90;99.90
38090;DHT22;23904;52.322;10.232;2022-07-21T09:46:26;22.90;99.90
38090;DHT22;23904;52.322;10.232;2022-07-21T09:48:55;22.90;99.90
38090;DHT22;23904;52.322;10.232;2022-07-21T09:56:17;23.20;99.90
38090;DHT22;23904;52.322;10.232;2022-07-21T09:58:48;23.20;99.90
38090;DHT22;23904;52.322;10.232;2022-07-21T10:01:14;23.50;99.90
38090;DHT22;23904;52.322;10.232;2022-07-21T10:03:42;23.60;99.90
38090;DHT22;23904;52.322;10.232;2022-07-21T10:06:08;23.80;99.90
38090;DHT22;23904;52.322;10.232;2022-07-21T10:08:35;24.00;99.90
38090;DHT22;23904;52.322;10.232;2022-07-21T10:11:01;24.20;99.90
38090;DHT22;23904;52.322;10.232;2022-07-21T10:13:27;24.40;99.90
38090;DHT22;23904;52.322;10.232;2022-07-21T10:15:53;24.60;99.90
38090;DHT22;23904;52.322;10.232;2022-07-21T10:18:19;24.70;99.90
38090;DHT22;23904;52.322;10.232;2022-07-21T10:20:48;24.60;99.90
38090;DHT22;23904;52.322;10.232;2022-07-21T10:23:39;24.80;99.90
38090;DHT22;23904;52.322;10.232;2022-07-21T10:26:09;24.80;99.70
38090;DHT22;23904;52.322;10.232;2022-07-21T10:28:36;24.80;99.60
38090;DHT22;23904;52.322;10.232;2022-07-21T10:31:14;24.90;99.30
38090;DHT22;23904;52.322;10.232;2022-07-21T10:36:56;25.20;98.60
38090;DHT22;23904;52.322;10.232;2022-07-21T10:41:39;26.40;96.70
38090;DHT22;23904;52.322;10.232;2022-07-21T10:44:37;27.60;93.80
38090;DHT22;23904;52.322;10.232;2022-07-21T10:47:08;29.30;90.10
38090;DHT22;23904;52.322;10.232;2022-07-21T10:49:49;30.40;84.90
38090;DHT22;23904;52.322;10.232;2022-07-21T10:57:40;31.10;76.20
38090;DHT22;23904;52.322;10.232;2022-07-21T11:00:25;31.60;72.60
38090;DHT22;23904;52.322;10.232;2022-07-21T11:02:59;31.10;72.20
38090;DHT22;23904;52.322;10.232;2022-07-21T11:05:29;30.60;73.70
38090;DHT22;23904;52.322;10.232;2022-07-21T11:08:16;31.10;72.90
38090;DHT22;23904;52.322;10.232;2022-07-21T11:10:51;31.60;69.60
38090;DHT22;23904;52.322;10.232;2022-07-21T11:13:18;31.50;69.30
38090;DHT22;23904;52.322;10.232;2022-07-21T11:18:40;30.50;72.20
38090;DHT22;23904;52.322;10.232;2022-07-21T11:21:15;29.90;74.10
38090;DHT22;23904;52.322;10.232;2022-07-21T11:23:46;30.30;72.90
38090;DHT22;23904;52.322;10.232;2022-07-21T11:26:14;30.80;69.90
38090;DHT22;23904;52.322;10.232;2022-07-21T11:28:40;30.60;71.20
38090;DHT22;23904;52.322;10.232;2022-07-21T11:33:39;29.60;73.40
38090;DHT22;23904;52.322;10.232;2022-07-21T11:36:05;29.90;72.50
38090;DHT22;23904;52.322;10.232;2022-07-21T11:38:31;30.20;70.50
38090;DHT22;23904;52.322;10.232;2022-07-21T11:41:16;30.80;66.50
38090;DHT22;23904;52.322;10.232;2022-07-21T11:43:44;31.10;65.30
38090;DHT22;23904;52.322;10.232;2022-07-21T11:46:10;30.40;67.90
38090;DHT22;23904;52.322;10.232;2022-07-21T11:48:36;30.70;66.90
38090;DHT22;23904;52.322;10.232;2022-07-21T11:51:02;30.30;66.90
38090;DHT22;23904;52.322;10.232;2022-07-21T11:53:28;30.20;65.50
38090;DHT22;23904;52.322;10.232;2022-07-21T11:55:54;29.40;69.10
38090;DHT22;23904;52.322;10.232;2022-07-21T11:58:20;28.70;71.00
38090;DHT22;23904;52.322;10.232;2022-07-21T12:00:46;28.10;71.30
38090;DHT22;23904;52.322;10.232;2022-07-21T12:03:12;27.60;73.10
38090;DHT22;23904;52.322;10.232;2022-07-21T12:05:42;27.20;74.90
38090;DHT22;23904;52.322;10.232;2022-07-21T12:08:08;26.80;76.00
38090;DHT22;23904;52.322;10.232;2022-07-21T12:10:34;26.70;76.50
38090;DHT22;23904;52.322;10.232;2022-07-21T12:13:06;26.80;78.50
38090;DHT22;23904;52.322;10.232;2022-07-21T12:15:34;26.60;79.50
38090;DHT22;23904;52.322;10.232;2022-07-21T12:18:18;26.50;78.40
38090;DHT22;23904;52.322;10.232;2022-07-21T12:20:44;26.30;84.50
38090;DHT22;23904;52.322;10.232;2022-07-21T12:23:30;26.00;86.80
38090;DHT22;23904;52.322;10.232;2022-07-21T12:25:58;26.00;85.50
38090;DHT22;23904;52.322;10.232;2022-07-21T12:31:11;26.30;81.30
38090;DHT22;23904;52.322;10.232;2022-07-21T12:33:39;26.80;82.20
38090;DHT22;23904;52.322;10.232;2022-07-21T12:36:07;26.70;79.70
38090;DHT22;23904;52.322;10.232;2022-07-21T12:38:45;26.80;78.50
38090;DHT22;23904;52.322;10.232;2022-07-21T12:41:13;27.00;77.50
38090;DHT22;23904;52.322;10.232;2022-07-21T12:43:39;27.00;78.50
38090;DHT22;23904;52.322;10.232;2022-07-21T12:46:15;27.40;78.00
38090;DHT22;23904;52.322;10.232;2022-07-21T12:48:43;27.90;76.40
38090;DHT22;23904;52.322;10.232;2022-07-21T12:53:51;27.90;72.90
38090;DHT22;23904;52.322;10.232;2022-07-21T12:56:28;27.70;73.10
38090;DHT22;23904;52.322;10.232;2022-07-21T12:58:55;27.50;73.70
38090;DHT22;23904;52.322;10.232;2022-07-21T13:01:23;27.10;76.00
38090;DHT22;23904;52.322;10.232;2022-07-21T13:03:48;26.90;76.30
38090;DHT22;23904;52.322;10.232;2022-07-21T13:06:14;26.40;78.10
38090;DHT22;23904;52.322;10.232;2022-07-21T13:08:42;26.50;78.40
38090;DHT22;23904;52.322;10.232;2022-07-21T13:11:10;26.40;79.80
38090;DHT22;23904;52.322;10.232;2022-07-21T13:13:37;26.20;77.80
38090;DHT22;23904;52.322;10.232;2022-07-21T13:16:03;26.40;78.20
38090;DHT22;23904;52.322;10.232;2022-07-21T13:18:28;26.20;79.00
38090;DHT22;23904;52.322;10.232;2022-07-21T13:20:54;26.40;77.90
38090;DHT22;23904;52.322;10.232;2022-07-21T13:23:20;26.60;80.80
38090;DHT22;23904;52.322;10.232;2022-07-21T13:25:46;26.80;81.40
38090;DHT22;23904;52.322;10.232;2022-07-21T13:28:13;26.70;82.80
38090;DHT22;23904;52.322;10.232;2022-07-21T13:30:39;26.40;80.80
38090;DHT22;23904;52.322;10.232;2022-07-21T13:33:04;26.40;79.50
38090;DHT22;23904;52.322;10.232;2022-07-21T13:35:30;26.80;78.30
38090;DHT22;23904;52.322;10.232;2022-07-21T13:37:57;27.10;76.30
38090;DHT22;23904;52.322;10.232;2022-07-21T13:40:23;27.50;73.90
38090;DHT22;23904;52.322;10.232;2022-07-21T13:42:49;27.70;72.80
38090;DHT22;23904;52.322;10.232;2022-07-21T13:45:15;27.90;71.20
38090;DHT22;23904;52.322;10.232;2022-07-21T13:47:42;28.20;72.60
38090;DHT22;23904;52.322;10.232;2022-07-21T13:50:07;28.60;70.60
38090;DHT22;23904;52.322;10.232;2022-07-21T13:52:33;28.90;70.40
38090;DHT22;23904;52.322;10.232;2022-07-21T13:55:00;29.10;68.90
38090;DHT22;23904;52.322;10.232;2022-07-21T13:57:25;29.10;66.40
38090;DHT22;23904;52.322;10.232;2022-07-21T13:59:51;29.10;65.70
38090;DHT22;23904;52.322;10.232;2022-07-21T14:02:17;28.70;66.30
38090;DHT22;23904;52.322;10.232;2022-07-21T14:04:42;28.30;67.30
38090;DHT22;23904;52.322;10.232;2022-07-21T14:07:08;27.50;69.50
38090;DHT22;23904;52.322;10.232;2022-07-21T14:09:36;27.10;71.90
38090;DHT22;23904;52.322;10.232;2022-07-21T14:12:01;26.80;73.70
38090;DHT22;23904;52.322;10.232;2022-07-21T14:14:27;26.50;74.60
38090;DHT22;23904;52.322;10.232;2022-07-21T14:16:53;26.30;75.20
38090;DHT22;23904;52.322;10.232;2022-07-21T14:19:20;26.30;75.90
38090;DHT22;23904;52.322;10.232;2022-07-21T14:21:45;26.10;77.90
38090;DHT22;23904;52.322;10.232;2022-07-21T14:24:11;25.90;78.00
38090;DHT22;23904;52.322;10.232;2022-07-21T14:26:55;25.70;78.50
38090;DHT22;23904;52.322;10.232;2022-07-21T14:29:21;25.50;80.10
38090;DHT22;23904;52.322;10.232;2022-07-21T14:31:47;25.30;81.10
38090;DHT22;23904;52.322;10.232;2022-07-21T14:34:14;25.20;81.70
38090;DHT22;23904;52.322;10.232;2022-07-21T14:36:40;25.20;82.90
38090;DHT22;23904;52.322;10.232;2022-07-21T14:39:05;25.10;84.30
38090;DHT22;23904;52.322;10.232;2022-07-21T14:41:32;25.00;86.60
38090;DHT22;23904;52.322;10.232;2022-07-21T14:43:57;25.00;86.60
38090;DHT22;23904;52.322;10.232;2022-07-21T14:46:23;25.00;90.10
38090;DHT22;23904;52.322;10.232;2022-07-21T14:48:48;24.80;92.00
38090;DHT22;23904;52.322;10.232;2022-07-21T14:51:14;24.80;93.30
38090;DHT22;23904;52.322;10.232;2022-07-21T14:53:39;24.30;96.30
38090;DHT22;23904;52.322;10.232;2022-07-21T14:56:05;24.10;98.70
38090;DHT22;23904;52.322;10.232;2022-07-21T14:58:31;23.80;99.90
38090;DHT22;23904;52.322;10.232;2022-07-21T15:00:56;23.90;99.90
38090;DHT22;23904;52.322;10.232;2022-07-21T15:03:22;23.80;99.90
38090;DHT22;23904;52.322;10.232;2022-07-21T15:05:47;23.70;99.90
38090;DHT22;23904;52.322;10.232;2022-07-21T15:08:13;23.50;99.90
38090;DHT22;23904;52.322;10.232;2022-07-21T15:10:40;23.40;99.90
38090;DHT22;23904;52.322;10.232;2022-07-21T15:13:06;23.60;99.90
38090;DHT22;23904;52.322;10.232;2022-07-21T15:15:31;23.60;99.90
38090;DHT22;23904;52.322;10.232;2022-07-21T15:17:58;23.70;99.90
38090;DHT22;23904;52.322;10.232;2022-07-21T15:20:23;23.70;99.90
38090;DHT22;23904;52.322;10.232;2022-07-21T15:22:49;23.90;99.90
38090;DHT22;23904;52.322;10.232;2022-07-21T15:25:14;23.80;99.90
38090;DHT22;23904;52.322;10.232;2022-07-21T15:27:42;23.60;99.90
38090;DHT22;23904;52.322;10.232;2022-07-21T15:30:11;23.60;99.90
38090;DHT22;23904;52.322;10.232;2022-07-21T15:32:37;23.60;99.90
38090;DHT22;23904;52.322;10.232;2022-07-21T15:35:03;23.60;99.90
38090;DHT22;23904;52.322;10.232;2022-07-21T15:37:29;23.70;99.90
38090;DHT22;23904;52.322;10.232;2022-07-21T15:39:54;23.70;99.90
38090;DHT22;23904;52.322;10.232;2022-07-21T15:42:20;23.70;99.90
38090;DHT22;23904;52.322;10.232;2022-07-21T15:44:45;23.70;99.90
38090;DHT22;23904;52.322;10.232;2022-07-21T15:47:11;23.80;99.90
38090;DHT22;23904;52.322;10.232;2022-07-21T15:49:37;23.90;99.90